Time;durP1;ratioP1;P1;durP2;ratioP2;P2;SDS_P1;SDS_P2;PMS_P1;PMS_P2;Temp;Humidity;BMP_temperature;BMP_pressure;BME280_temperature;BME280_humidity;BME280_pressure;Samples;Min_cycle;Max_cycle;Signal;HPM_P1;HPM_P2
2023/11/11 06:02:27;;;;;;;3.23;2.03;;;;;;;;;;5035980;23;20523;-69
2023/11/11 06:04:53;;;;;;;3.00;1.40;;;;;;;;;;4975114;28;20416;-69
2023/11/11 06:07:20;;;;;;;2.10;1.83;;;;;;;;;;4975097;28;20455;-69
2023/11/11 06:09:46;;;;;;;2.13;1.97;;;;;;;;;;4974918;28;20432;-69
2023/11/11 06:12:13;;;;;;;2.17;2.00;;;;;;;;;;4974734;28;20459;-69
2023/11/11 06:14:39;;;;;;;1.67;1.63;;;;;;;;;;4975027;28;20431;-68
2023/11/11 06:17:05;;;;;;;2.67;2.00;;;;;;;;;;4974709;28;20442;-68
2023/11/11 06:19:31;;;;;;;2.40;1.97;;;;;;;;;;4970026;28;20898;-68
2023/11/11 06:21:57;;;;;;;1.80;1.70;;;;;;;;;;4974493;28;20510;-69
2023/11/11 06:24:23;;;;;;;2.20;2.00;;;;;;;;;;4974391;28;20412;-68
2023/11/11 06:26:49;;;;;;;10.50;1.93;;;;;;;;;;4974486;28;20536;-68
2023/11/11 06:29:15;;;;;;;2.20;2.00;;;;;;;;;;4974448;28;20408;-68
2023/11/11 06:31:41;;;;;;;4.20;2.17;;;;;;;;;;4974385;28;20527;-68
2023/11/11 06:34:07;;;;;;;2.57;2.43;;;;;;;;;;4974286;28;20416;-68
2023/11/11 06:36:33;;;;;;;3.47;2.37;;;;;;;;;;4975200;28;20416;-68
2023/11/11 06:38:59;;;;;;;2.70;1.67;;;;;;;;;;4974595;28;20412;-68
2023/11/11 06:41:25;;;;;;;5.07;2.67;;;;;;;;;;4974258;28;20485;-68
2023/11/11 06:43:51;;;;;;;6.60;2.13;;;;;;;;;;4964589;28;20417;-69
2023/11/11 06:46:17;;;;;;;4.80;2.10;;;;;;;;;;4955029;29;20500;-68
2023/11/11 06:48:43;;;;;;;3.97;2.00;;;;;;;;;;4955592;29;20409;-68
2023/11/11 06:51:09;;;;;;;2.00;1.80;;;;;;;;;;4955141;29;20940;-69
2023/11/11 06:53:35;;;;;;;4.00;2.20;;;;;;;;;;4954702;29;20922;-68
2023/11/11 06:56:02;;;;;;;3.00;1.87;;;;;;;;;;4954902;29;20511;-69
2023/11/11 06:58:28;;;;;;;4.00;1.30;;;;;;;;;;4954978;29;20566;-69
2023/11/11 07:00:55;;;;;;;2.73;1.87;;;;;;;;;;4954527;29;20452;-68
2023/11/11 07:03:21;;;;;;;2.40;2.00;;;;;;;;;;4954326;29;20496;-68
2023/11/11 07:05:47;;;;;;;3.67;1.37;;;;;;;;;;4953523;29;20413;-68
2023/11/11 07:08:13;;;;;;;3.20;1.70;;;;;;;;;;4954882;29;20424;-68
2023/11/11 07:10:40;;;;;;;1.67;1.57;;;;;;;;;;4968682;28;20519;-68
2023/11/11 07:13:06;;;;;;;1.97;1.47;;;;;;;;;;4975972;28;20455;-68
2023/11/11 07:15:34;;;;;;;3.10;1.77;;;;;;;;;;4973602;28;20761;-68
2023/11/11 07:18:00;;;;;;;1.83;1.53;;;;;;;;;;4973677;28;20559;-67
2023/11/11 07:20:28;;;;;;;1.80;1.70;;;;;;;;;;4973915;28;20420;-68
2023/11/11 07:22:55;;;;;;;1.80;1.20;;;;;;;;;;4979176;28;20463;-68
2023/11/11 07:25:23;;;;;;;3.37;1.10;;;;;;;;;;4974438;28;20934;-67
2023/11/11 07:27:49;;;;;;;2.20;1.90;;;;;;;;;;4989555;28;20474;-67
2023/11/11 07:30:15;;;;;;;1.90;1.70;;;;;;;;;;4993068;28;20403;-67
2023/11/11 07:32:41;;;;;;;1.50;1.43;;;;;;;;;;4992877;28;20414;-68
2023/11/11 07:35:11;;;;;;;2.00;1.30;;;;;;;;;;4993257;28;20411;-68
2023/11/11 07:37:42;;;;;;;1.40;1.30;;;;;;;;;;4989437;28;20436;-68
2023/11/11 07:40:08;;;;;;;1.50;1.43;;;;;;;;;;4968584;28;20468;-68
2023/11/11 07:42:35;;;;;;;1.03;1.00;;;;;;;;;;4954921;28;20465;-67
2023/11/11 07:45:03;;;;;;;1.90;1.23;;;;;;;;;;4967747;28;20425;-68
2023/11/11 07:47:29;;;;;;;1.50;1.40;;;;;;;;;;4953977;29;20826;-68
2023/11/11 07:49:55;;;;;;;3.60;1.50;;;;;;;;;;4953612;28;20409;-67
2023/11/11 07:52:22;;;;;;;1.47;1.20;;;;;;;;;;4953577;29;20887;-68
2023/11/11 07:54:48;;;;;;;2.10;1.33;;;;;;;;;;4953787;29;20409;-69
2023/11/11 07:57:15;;;;;;;3.10;1.80;;;;;;;;;;4957071;28;20431;-68
2023/11/11 07:59:43;;;;;;;1.93;1.60;;;;;;;;;;4961773;28;20428;-69
2023/11/11 08:02:12;;;;;;;1.93;1.43;;;;;;;;;;4952104;29;20487;-68
2023/11/11 08:04:39;;;;;;;1.60;1.20;;;;;;;;;;4972321;28;20423;-68
2023/11/11 08:07:06;;;;;;;4.40;2.00;;;;;;;;;;4966100;28;20490;-67
2023/11/11 08:09:32;;;;;;;2.10;1.53;;;;;;;;;;4966688;28;20423;-68
2023/11/11 08:11:58;;;;;;;1.80;1.73;;;;;;;;;;4957137;28;20842;-67
2023/11/11 08:14:24;;;;;;;1.80;1.70;;;;;;;;;;4955104;28;20417;-67
2023/11/11 08:16:50;;;;;;;3.30;1.70;;;;;;;;;;4972598;28;20970;-67
2023/11/11 08:19:16;;;;;;;2.97;1.90;;;;;;;;;;4972215;28;20895;-67
2023/11/11 08:21:42;;;;;;;3.57;1.53;;;;;;;;;;4972910;28;20455;-67
2023/11/11 08:24:09;;;;;;;2.20;1.73;;;;;;;;;;4981638;28;20469;-67
2023/11/11 08:26:35;;;;;;;1.73;1.63;;;;;;;;;;4969133;28;20455;-67
2023/11/11 08:29:01;;;;;;;2.60;1.50;;;;;;;;;;4972811;28;20411;-67
2023/11/11 08:31:28;;;;;;;4.43;2.13;;;;;;;;;;4964943;28;20955;-67
2023/11/11 08:33:54;;;;;;;7.03;2.17;;;;;;;;;;4953305;29;20413;-68
2023/11/11 08:36:20;;;;;;;1.77;1.70;;;;;;;;;;4970548;28;20491;-67
2023/11/11 08:38:46;;;;;;;2.30;2.10;;;;;;;;;;4973002;28;20793;-69
2023/11/11 08:41:12;;;;;;;4.73;2.03;;;;;;;;;;4957295;28;20445;-68
2023/11/11 08:43:39;;;;;;;3.43;1.80;;;;;;;;;;4953433;29;20475;-68
2023/11/11 08:46:07;;;;;;;5.40;2.27;;;;;;;;;;4962841;28;20783;-67
2023/11/11 08:48:34;;;;;;;3.10;1.77;;;;;;;;;;4972885;28;20434;-68
2023/11/11 08:51:00;;;;;;;2.97;1.70;;;;;;;;;;4972615;28;20522;-69
2023/11/11 08:53:27;;;;;;;8.50;2.70;;;;;;;;;;4971844;28;20423;-69
2023/11/11 08:55:53;;;;;;;2.03;1.50;;;;;;;;;;4972477;28;20898;-68
2023/11/11 08:58:19;;;;;;;3.17;1.93;;;;;;;;;;4967843;28;20801;-69
2023/11/11 09:00:46;;;;;;;7.13;1.93;;;;;;;;;;4961702;28;20519;-68
2023/11/11 09:03:12;;;;;;;3.53;1.73;;;;;;;;;;4956663;29;20563;-68
2023/11/11 09:05:38;;;;;;;3.53;2.40;;;;;;;;;;4974141;28;20494;-69
2023/11/11 09:08:05;;;;;;;1.57;1.47;;;;;;;;;;4975795;28;20503;-69
2023/11/11 09:10:32;;;;;;;3.53;2.30;;;;;;;;;;4975865;28;20957;-69
2023/11/11 09:12:58;;;;;;;6.17;1.90;;;;;;;;;;4974707;28;20427;-68
2023/11/11 09:15:24;;;;;;;4.23;3.07;;;;;;;;;;4974967;28;20519;-67
2023/11/11 09:17:50;;;;;;;2.60;2.40;;;;;;;;;;4956876;29;20511;-69
2023/11/11 09:20:16;;;;;;;2.40;2.07;;;;;;;;;;4976170;28;20422;-68
2023/11/11 09:22:42;;;;;;;3.50;1.90;;;;;;;;;;4964637;28;20523;-68
2023/11/11 09:25:09;;;;;;;4.20;2.40;;;;;;;;;;4968437;28;20417;-68
2023/11/11 09:27:35;;;;;;;3.20;2.10;;;;;;;;;;4956556;28;20432;-71
2023/11/11 09:30:02;;;;;;;3.20;2.17;;;;;;;;;;4964439;28;20500;-71
2023/11/11 09:32:28;;;;;;;1.80;1.70;;;;;;;;;;4975886;28;20481;-70
2023/11/11 09:34:54;;;;;;;4.27;2.57;;;;;;;;;;4973747;28;20434;-71
2023/11/11 09:37:20;;;;;;;3.27;2.20;;;;;;;;;;4975750;28;20567;-71
2023/11/11 09:39:47;;;;;;;5.40;2.10;;;;;;;;;;4975165;28;20423;-71
2023/11/11 09:42:13;;;;;;;5.70;1.70;;;;;;;;;;4967321;28;20475;-70
2023/11/11 09:44:40;;;;;;;3.10;1.77;;;;;;;;;;4965726;28;20935;-71
2023/11/11 09:47:06;;;;;;;3.10;1.80;;;;;;;;;;4973426;28;20423;-70
2023/11/11 09:49:32;;;;;;;2.87;1.90;;;;;;;;;;4977117;28;20415;-70
2023/11/11 09:52:00;;;;;;;7.03;1.60;;;;;;;;;;4983532;28;20497;-70
2023/11/11 09:54:27;;;;;;;2.30;1.80;;;;;;;;;;4970457;28;20441;-71
2023/11/11 09:56:56;;;;;;;2.77;1.77;;;;;;;;;;4978144;28;20424;-70
2023/11/11 09:59:22;;;;;;;2.23;1.87;;;;;;;;;;4975911;28;20934;-70
2023/11/11 10:01:48;;;;;;;4.87;1.37;;;;;;;;;;4985376;28;20558;-70
2023/11/11 10:04:15;;;;;;;3.83;1.60;;;;;;;;;;4965019;28;20456;-70
2023/11/11 10:06:41;;;;;;;1.40;1.30;;;;;;;;;;4971388;28;20507;-71
2023/11/11 10:09:12;;;;;;;1.50;1.40;;;;;;;;;;4983628;28;20983;-71
2023/11/11 10:11:39;;;;;;;5.53;1.77;;;;;;;;;;4985429;28;20469;-70
2023/11/11 10:14:05;;;;;;;1.73;1.47;;;;;;;;;;4978656;28;20416;-70
2023/11/11 10:16:32;;;;;;;1.93;1.50;;;;;;;;;;4977225;28;20427;-70
2023/11/11 10:18:58;;;;;;;2.00;1.83;;;;;;;;;;4977001;28;20423;-70
2023/11/11 10:21:25;;;;;;;2.93;1.97;;;;;;;;;;4967538;28;20444;-72
2023/11/11 10:23:52;;;;;;;2.13;1.90;;;;;;;;;;4963358;28;20819;-75
2023/11/11 10:26:20;;;;;;;3.13;1.60;;;;;;;;;;4969222;28;20420;-72
2023/11/11 10:28:48;;;;;;;2.63;2.10;;;;;;;;;;4974359;28;20404;-71
2023/11/11 10:31:15;;;;;;;4.00;1.83;;;;;;;;;;4973127;28;20448;-72
2023/11/11 10:33:42;;;;;;;3.00;1.80;;;;;;;;;;4973252;28;21019;-72
2023/11/11 10:36:08;;;;;;;3.40;1.37;;;;;;;;;;4972747;28;20447;-72
2023/11/11 10:38:35;;;;;;;2.57;2.17;;;;;;;;;;4972125;28;20420;-71
2023/11/11 10:41:01;;;;;;;1.83;1.73;;;;;;;;;;4961977;28;20471;-70
2023/11/11 10:43:27;;;;;;;3.83;1.93;;;;;;;;;;4974279;28;20491;-71
2023/11/11 10:45:56;;;;;;;3.93;1.83;;;;;;;;;;4974941;28;20446;-72
2023/11/11 10:48:23;;;;;;;6.80;2.27;;;;;;;;;;4973703;28;20408;-69
2023/11/11 10:50:53;;;;;;;2.10;2.00;;;;;;;;;;4972606;28;20464;-69
2023/11/11 10:53:19;;;;;;;3.73;2.30;;;;;;;;;;4971791;28;20461;-69
2023/11/11 10:55:49;;;;;;;6.50;2.07;;;;;;;;;;4962872;28;20984;-69
2023/11/11 10:58:17;;;;;;;2.00;1.70;;;;;;;;;;4964945;28;20424;-69
2023/11/11 11:00:43;;;;;;;3.47;1.87;;;;;;;;;;4974607;28;20880;-69
2023/11/11 11:03:09;;;;;;;2.87;1.77;;;;;;;;;;4967043;28;20456;-69
2023/11/11 11:05:37;;;;;;;5.00;1.77;;;;;;;;;;4958815;29;20424;-69
2023/11/11 11:08:10;;;;;;;2.80;2.00;;;;;;;;;;4958855;29;20515;-69
2023/11/11 11:10:51;;;;;;;2.30;1.83;;;;;;;;;;4958433;29;20421;-69
2023/11/11 11:13:18;;;;;;;2.20;1.40;;;;;;;;;;4982157;28;20433;-69
2023/11/11 11:15:44;;;;;;;1.60;1.50;;;;;;;;;;4996000;28;20490;-69
2023/11/11 11:18:11;;;;;;;4.73;2.10;;;;;;;;;;4960730;28;20429;-69
2023/11/11 11:20:37;;;;;;;2.57;1.60;;;;;;;;;;4969508;28;20476;-69
2023/11/11 11:23:10;;;;;;;2.07;1.77;;;;;;;;;;4973326;28;20966;-69
2023/11/11 11:25:37;;;;;;;3.93;1.60;;;;;;;;;;4973208;28;20779;-69
2023/11/11 11:28:14;;;;;;;2.70;1.40;;;;;;;;;;4973392;28;20415;-69
2023/11/11 11:30:44;;;;;;;5.60;1.90;;;;;;;;;;4973563;28;20434;-69
2023/11/11 11:33:16;;;;;;;7.60;2.23;;;;;;;;;;4972926;28;20453;-69
2023/11/11 11:35:43;;;;;;;2.40;1.67;;;;;;;;;;4972190;28;20454;-69
2023/11/11 11:38:10;;;;;;;1.97;1.50;;;;;;;;;;4973287;28;20411;-69
2023/11/11 11:40:37;;;;;;;2.13;1.50;;;;;;;;;;4973561;28;21120;-69
2023/11/11 11:43:09;;;;;;;3.43;1.60;;;;;;;;;;4973551;28;20495;-69
2023/11/11 11:45:36;;;;;;;3.63;1.73;;;;;;;;;;4978990;28;20415;-70
2023/11/11 11:48:02;;;;;;;2.47;1.70;;;;;;;;;;4957075;28;20421;-69
2023/11/11 11:50:28;;;;;;;3.20;2.07;;;;;;;;;;4956922;29;20469;-69
2023/11/11 11:52:54;;;;;;;2.87;1.40;;;;;;;;;;4955966;29;20416;-69
2023/11/11 11:55:22;;;;;;;2.37;1.47;;;;;;;;;;4954162;29;20404;-68
2023/11/11 11:57:57;;;;;;;2.03;1.50;;;;;;;;;;4953739;29;20413;-68
2023/11/11 12:00:24;;;;;;;2.10;1.67;;;;;;;;;;4953222;29;20452;-68
2023/11/11 12:02:52;;;;;;;1.53;1.43;;;;;;;;;;4953817;28;20475;-68
2023/11/11 12:05:18;;;;;;;9.43;2.20;;;;;;;;;;4953077;29;20467;-68
2023/11/11 12:07:50;;;;;;;5.50;1.67;;;;;;;;;;4953294;29;20803;-68
2023/11/11 12:10:16;;;;;;;3.13;1.50;;;;;;;;;;4956030;28;20915;-69
2023/11/11 12:12:43;;;;;;;2.67;1.80;;;;;;;;;;4972342;28;20427;-69
2023/11/11 12:15:12;;;;;;;2.43;1.70;;;;;;;;;;4961315;28;20921;-70
2023/11/11 12:17:42;;;;;;;3.07;1.60;;;;;;;;;;4953423;28;20413;-69
2023/11/11 12:20:09;;;;;;;2.53;1.60;;;;;;;;;;4953117;28;20939;-69
2023/11/11 12:22:35;;;;;;;4.23;1.90;;;;;;;;;;4953228;29;20475;-69
2023/11/11 12:25:02;;;;;;;2.73;1.90;;;;;;;;;;4953533;29;20420;-69
2023/11/11 12:27:28;;;;;;;6.10;2.00;;;;;;;;;;4953745;29;20912;-69
2023/11/11 12:29:54;;;;;;;2.63;2.20;;;;;;;;;;4953466;28;20435;-69
2023/11/11 12:32:20;;;;;;;4.97;2.70;;;;;;;;;;4953211;29;20432;-68
2023/11/11 12:34:50;;;;;;;3.80;2.40;;;;;;;;;;4953711;28;20417;-68
2023/11/11 12:37:20;;;;;;;2.40;2.20;;;;;;;;;;4957177;29;20413;-69
2023/11/11 12:39:50;;;;;;;3.63;2.40;;;;;;;;;;4975464;28;20462;-70
2023/11/11 12:42:17;;;;;;;4.17;2.23;;;;;;;;;;4975829;28;20955;-69
2023/11/11 12:44:44;;;;;;;3.60;2.50;;;;;;;;;;4975509;28;20421;-70
2023/11/11 12:47:10;;;;;;;4.43;2.47;;;;;;;;;;4976438;28;20412;-69
2023/11/11 12:49:38;;;;;;;4.20;3.60;;;;;;;;;;4976161;28;20426;-69
2023/11/11 12:52:14;;;;;;;2.57;2.00;;;;;;;;;;4975965;28;20510;-69
2023/11/11 12:54:40;;;;;;;6.43;3.03;;;;;;;;;;4976102;28;20415;-69
2023/11/11 12:57:07;;;;;;;3.83;2.47;;;;;;;;;;4975871;28;20450;-69
2023/11/11 12:59:33;;;;;;;5.13;2.90;;;;;;;;;;4975959;28;20970;-70
2023/11/11 13:02:04;;;;;;;5.50;2.50;;;;;;;;;;4975742;28;20475;-70
2023/11/11 13:04:32;;;;;;;9.20;2.40;;;;;;;;;;4975558;28;20423;-73
2023/11/11 13:07:02;;;;;;;7.33;3.30;;;;;;;;;;4966877;28;20424;-71
2023/11/11 13:09:41;;;;;;;4.97;2.80;;;;;;;;;;4954873;29;20449;-74
2023/11/11 13:12:07;;;;;;;4.73;2.43;;;;;;;;;;4955952;28;20943;-71
2023/11/11 13:14:35;;;;;;;6.37;2.63;;;;;;;;;;4954603;29;20488;-72
2023/11/11 13:17:06;;;;;;;3.90;2.20;;;;;;;;;;4955961;29;20424;-72
2023/11/11 13:19:35;;;;;;;7.30;2.47;;;;;;;;;;4955906;29;20416;-70
2023/11/11 13:22:04;;;;;;;5.00;2.00;;;;;;;;;;4955885;29;20615;-71
2023/11/11 13:24:31;;;;;;;2.90;2.00;;;;;;;;;;4954791;28;20986;-71
2023/11/11 13:26:57;;;;;;;2.37;1.80;;;;;;;;;;4963601;28;20503;-70
2023/11/11 13:29:26;;;;;;;3.13;2.43;;;;;;;;;;4974512;28;20423;-70
2023/11/11 13:31:55;;;;;;;7.17;2.27;;;;;;;;;;4970708;28;20444;-70
2023/11/11 13:34:21;;;;;;;3.83;1.90;;;;;;;;;;4973154;28;20428;-70
2023/11/11 13:36:47;;;;;;;2.07;1.80;;;;;;;;;;4967686;28;20416;-70
2023/11/11 13:39:34;;;;;;;6.83;2.30;;;;;;;;;;4974661;28;20925;-70
2023/11/11 13:42:05;;;;;;;6.20;1.70;;;;;;;;;;4975032;28;20598;-70
2023/11/11 13:44:31;;;;;;;8.33;1.93;;;;;;;;;;4986282;28;20419;-70
2023/11/11 13:46:57;;;;;;;2.77;2.30;;;;;;;;;;4993178;28;20412;-70
2023/11/11 13:49:23;;;;;;;3.23;1.70;;;;;;;;;;4992768;28;20458;-70
2023/11/11 13:51:49;;;;;;;2.63;2.10;;;;;;;;;;4993814;28;20439;-70
2023/11/11 13:54:15;;;;;;;1.23;1.23;;;;;;;;;;4994024;28;20418;-70
2023/11/11 13:56:43;;;;;;;3.43;1.40;;;;;;;;;;4993943;28;20411;-70
2023/11/11 13:59:09;;;;;;;2.20;1.70;;;;;;;;;;4993650;28;20481;-69
2023/11/11 14:01:35;;;;;;;4.80;2.57;;;;;;;;;;4993269;28;20969;-70
2023/11/11 14:04:01;;;;;;;12.23;3.60;;;;;;;;;;4959588;28;20928;-70
2023/11/11 14:06:32;;;;;;;4.50;1.90;;;;;;;;;;4956749;28;20715;-71
2023/11/11 14:08:58;;;;;;;3.80;2.10;;;;;;;;;;4974011;28;20404;-70
2023/11/11 14:11:25;;;;;;;2.07;1.97;;;;;;;;;;4958433;28;20432;-70
2023/11/11 14:13:52;;;;;;;5.17;3.00;;;;;;;;;;4954800;29;20416;-70
2023/11/11 14:16:21;;;;;;;5.33;2.20;;;;;;;;;;4955028;29;20814;-70
2023/11/11 14:18:48;;;;;;;2.43;1.83;;;;;;;;;;4955014;29;20436;-70
2023/11/11 14:21:16;;;;;;;7.23;2.10;;;;;;;;;;4954801;29;20801;-70
2023/11/11 14:23:43;;;;;;;2.03;1.90;;;;;;;;;;4954726;29;20456;-70
2023/11/11 14:26:09;;;;;;;2.50;1.97;;;;;;;;;;4955295;29;20830;-71
2023/11/11 14:28:35;;;;;;;4.80;1.80;;;;;;;;;;4955287;29;20432;-71
2023/11/11 14:31:02;;;;;;;4.53;2.27;;;;;;;;;;4955126;29;20456;-70
2023/11/11 14:33:29;;;;;;;2.60;1.70;;;;;;;;;;4955582;29;20459;-70
2023/11/11 14:35:56;;;;;;;2.73;1.70;;;;;;;;;;4955015;29;20413;-70
2023/11/11 14:38:22;;;;;;;4.03;1.90;;;;;;;;;;4954592;28;20940;-70
2023/11/11 14:40:48;;;;;;;5.97;1.77;;;;;;;;;;4954161;29;20464;-71
2023/11/11 14:43:14;;;;;;;2.97;1.97;;;;;;;;;;4954579;29;20444;-71
2023/11/11 14:45:43;;;;;;;4.90;2.30;;;;;;;;;;4954978;29;20417;-69
2023/11/11 14:48:09;;;;;;;1.80;1.60;;;;;;;;;;4966165;28;20897;-70
2023/11/11 14:50:35;;;;;;;9.10;2.07;;;;;;;;;;4973959;28;20519;-70
2023/11/11 14:53:02;;;;;;;4.93;2.10;;;;;;;;;;4974053;28;20741;-71
2023/11/11 14:55:31;;;;;;;4.97;2.13;;;;;;;;;;4974954;28;20412;-70
2023/11/11 14:57:57;;;;;;;4.90;2.07;;;;;;;;;;4974929;28;20455;-72
2023/11/11 15:00:22;;;;;;;4.73;1.57;;;;;;;;;;4973078;28;20877;-70
2023/11/11 15:02:55;;;;;;;4.40;2.00;;;;;;;;;;4971705;28;20506;-71
2023/11/11 15:05:21;;;;;;;7.30;2.57;;;;;;;;;;4966097;28;20415;-70
2023/11/11 15:07:48;;;;;;;6.10;2.13;;;;;;;;;;4968456;28;20409;-70
2023/11/11 15:10:20;;;;;;;4.40;1.97;;;;;;;;;;4971694;28;20774;-74
2023/11/11 15:12:48;;;;;;;3.20;2.10;;;;;;;;;;4973832;28;20547;-74
2023/11/11 15:15:14;;;;;;;2.37;2.00;;;;;;;;;;4973147;28;20436;-70
2023/11/11 15:17:42;;;;;;;2.07;1.93;;;;;;;;;;4976483;28;20424;-72
2023/11/11 15:20:13;;;;;;;14.17;2.53;;;;;;;;;;4954434;28;20464;-71
2023/11/11 15:22:39;;;;;;;12.30;2.80;;;;;;;;;;4972874;28;20467;-72
2023/11/11 15:25:05;;;;;;;3.17;2.30;;;;;;;;;;4972734;28;20428;-72
2023/11/11 15:27:32;;;;;;;4.03;2.23;;;;;;;;;;4976470;28;20822;-71
2023/11/11 15:29:58;;;;;;;2.93;2.13;;;;;;;;;;4962149;28;20769;-70
2023/11/11 15:32:24;;;;;;;3.53;2.00;;;;;;;;;;4953870;28;20460;-71
2023/11/11 15:34:50;;;;;;;3.20;1.80;;;;;;;;;;4954001;28;20421;-71
2023/11/11 15:37:16;;;;;;;7.60;2.77;;;;;;;;;;4971941;28;20424;-70
2023/11/11 15:39:43;;;;;;;2.77;1.70;;;;;;;;;;4976204;28;20425;-70
2023/11/11 15:42:10;;;;;;;3.97;1.50;;;;;;;;;;4953310;28;20573;-71
2023/11/11 15:44:36;;;;;;;3.80;2.00;;;;;;;;;;4953545;28;20412;-70
2023/11/11 15:47:04;;;;;;;2.33;1.60;;;;;;;;;;4953238;28;20420;-70
2023/11/11 15:49:30;;;;;;;4.83;2.10;;;;;;;;;;4953524;28;20509;-71
2023/11/11 15:51:56;;;;;;;2.63;2.13;;;;;;;;;;4960367;28;20432;-71
2023/11/11 15:54:21;;;;;;;4.23;2.03;;;;;;;;;;4969507;28;20417;-71
2023/11/11 15:56:48;;;;;;;3.53;1.77;;;;;;;;;;4970813;28;20434;-71
2023/11/11 15:59:18;;;;;;;2.20;1.50;;;;;;;;;;4972925;28;20567;-70
2023/11/11 16:01:44;;;;;;;4.53;2.23;;;;;;;;;;4972822;28;20447;-71
2023/11/11 16:04:11;;;;;;;3.50;1.83;;;;;;;;;;4974712;28;20434;-71
2023/11/11 16:06:39;;;;;;;4.90;2.77;;;;;;;;;;4977648;28;20417;-72
2023/11/11 16:09:07;;;;;;;3.00;2.20;;;;;;;;;;4956987;28;20416;-71
2023/11/11 16:11:34;;;;;;;11.00;2.27;;;;;;;;;;4971853;28;20432;-70
2023/11/11 16:14:00;;;;;;;3.30;2.30;;;;;;;;;;4979628;28;20916;-70
2023/11/11 16:16:27;;;;;;;9.20;3.17;;;;;;;;;;4978323;28;20895;-70
2023/11/11 16:18:53;;;;;;;11.20;3.50;;;;;;;;;;4977287;28;20415;-70
2023/11/11 16:21:21;;;;;;;7.30;3.07;;;;;;;;;;4976847;28;20439;-69
2023/11/11 16:23:48;;;;;;;4.57;2.53;;;;;;;;;;4978160;28;20447;-71
2023/11/11 16:26:14;;;;;;;7.13;3.10;;;;;;;;;;4978929;28;20425;-70
2023/11/11 16:28:40;;;;;;;3.47;2.30;;;;;;;;;;4969216;28;20483;-70
2023/11/11 16:31:06;;;;;;;5.80;2.50;;;;;;;;;;4971052;28;20523;-71
2023/11/11 16:33:35;;;;;;;12.63;4.57;;;;;;;;;;4971895;28;20480;-71
2023/11/11 16:36:02;;;;;;;9.33;4.07;;;;;;;;;;4980351;28;20416;-72
2023/11/11 16:38:28;;;;;;;15.73;6.80;;;;;;;;;;4986789;28;20414;-72
2023/11/11 16:40:54;;;;;;;17.83;7.70;;;;;;;;;;4978087;28;20436;-71
2023/11/11 16:43:20;;;;;;;12.73;5.47;;;;;;;;;;4956923;29;20538;-71
2023/11/11 16:45:46;;;;;;;13.87;5.43;;;;;;;;;;4957108;29;20416;-71
2023/11/11 16:48:12;;;;;;;11.13;3.90;;;;;;;;;;4965138;28;20416;-70
2023/11/11 16:50:39;;;;;;;9.30;3.60;;;;;;;;;;4969036;28;20927;-71
2023/11/11 16:53:05;;;;;;;5.97;4.07;;;;;;;;;;4967279;28;20447;-70
2023/11/11 16:55:31;;;;;;;10.83;4.90;;;;;;;;;;4969740;28;20424;-70
2023/11/11 16:57:57;;;;;;;12.90;6.57;;;;;;;;;;4971307;28;20425;-70
2023/11/11 17:00:23;;;;;;;22.03;8.80;;;;;;;;;;4962816;28;20431;-70
2023/11/11 17:02:49;;;;;;;15.00;6.70;;;;;;;;;;4969824;28;20507;-72
2023/11/11 17:05:15;;;;;;;18.10;6.03;;;;;;;;;;4971209;28;20416;-71
2023/11/11 17:07:44;;;;;;;14.63;6.37;;;;;;;;;;4976098;28;20458;-73
2023/11/11 17:10:10;;;;;;;20.53;8.17;;;;;;;;;;4975239;28;20432;-72
2023/11/11 17:12:36;;;;;;;23.50;9.63;;;;;;;;;;4967669;28;20424;-71
2023/11/11 17:15:02;;;;;;;16.93;7.80;;;;;;;;;;4971437;28;20841;-70
2023/11/11 17:17:28;;;;;;;27.53;9.40;;;;;;;;;;4976129;28;20420;-70
2023/11/11 17:19:54;;;;;;;10.00;5.93;;;;;;;;;;4969252;28;20901;-71
2023/11/11 17:22:20;;;;;;;11.97;5.90;;;;;;;;;;4979208;28;20471;-71
2023/11/11 17:24:46;;;;;;;20.67;6.23;;;;;;;;;;4970629;28;20947;-72
2023/11/11 17:27:13;;;;;;;10.10;5.50;;;;;;;;;;4975125;28;20816;-70
2023/11/11 17:29:39;;;;;;;11.33;5.20;;;;;;;;;;4979075;28;20918;-70
2023/11/11 17:32:05;;;;;;;9.53;5.50;;;;;;;;;;4964133;28;20543;-70
2023/11/11 17:34:31;;;;;;;11.30;4.03;;;;;;;;;;4962354;28;20431;-70
2023/11/11 17:36:59;;;;;;;7.13;3.80;;;;;;;;;;4970717;28;20518;-71
2023/11/11 17:39:26;;;;;;;16.47;4.57;;;;;;;;;;4974109;28;20851;-71
2023/11/11 17:41:52;;;;;;;11.03;4.30;;;;;;;;;;4965558;28;20448;-71
2023/11/11 17:44:18;;;;;;;7.17;3.90;;;;;;;;;;4978198;28;20441;-71
2023/11/11 17:46:44;;;;;;;8.93;4.67;;;;;;;;;;4972420;28;20422;-71
2023/11/11 17:49:10;;;;;;;10.03;4.43;;;;;;;;;;4992000;28;20442;-71
2023/11/11 17:51:36;;;;;;;14.63;4.93;;;;;;;;;;5001247;28;20431;-71
2023/11/11 17:54:02;;;;;;;11.80;4.63;;;;;;;;;;4978361;28;20461;-69
2023/11/11 17:56:29;;;;;;;12.03;5.17;;;;;;;;;;4958475;28;20417;-70
2023/11/11 17:58:55;;;;;;;9.60;4.93;;;;;;;;;;4956506;28;20467;-71
2023/11/11 18:01:21;;;;;;;13.27;6.27;;;;;;;;;;4966243;28;20464;-70
2023/11/11 18:03:47;;;;;;;17.90;5.87;;;;;;;;;;4962493;28;20466;-70
2023/11/11 18:06:13;;;;;;;14.90;5.97;;;;;;;;;;4968125;28;20417;-70
2023/11/11 18:08:39;;;;;;;9.97;5.50;;;;;;;;;;4968540;28;20420;-69
2023/11/11 18:11:07;;;;;;;11.50;6.57;;;;;;;;;;4967728;28;20834;-70
2023/11/11 18:13:33;;;;;;;8.13;4.63;;;;;;;;;;4974044;28;21117;-71
2023/11/11 18:15:59;;;;;;;13.93;6.20;;;;;;;;;;4975385;28;20443;-70
2023/11/11 18:18:26;;;;;;;12.50;6.70;;;;;;;;;;4962878;28;20436;-70
2023/11/11 18:20:52;;;;;;;21.67;7.30;;;;;;;;;;4969031;28;20464;-71
2023/11/11 18:23:18;;;;;;;10.97;7.10;;;;;;;;;;4963319;28;20625;-72
2023/11/11 18:25:44;;;;;;;19.37;5.40;;;;;;;;;;4956299;28;20508;-71
2023/11/11 18:28:10;;;;;;;8.93;6.27;;;;;;;;;;4963093;28;20431;-71
2023/11/11 18:30:36;;;;;;;10.83;5.10;;;;;;;;;;4977310;28;20435;-70
2023/11/11 18:33:02;;;;;;;8.20;5.27;;;;;;;;;;4966127;28;20433;-71
2023/11/11 18:35:28;;;;;;;11.83;5.50;;;;;;;;;;4969361;28;20518;-70
2023/11/11 18:37:54;;;;;;;8.97;5.13;;;;;;;;;;4977447;28;20486;-70
2023/11/11 18:40:21;;;;;;;8.37;4.40;;;;;;;;;;4971216;28;20435;-70
2023/11/11 18:42:49;;;;;;;7.77;4.37;;;;;;;;;;4979259;28;21198;-70
2023/11/11 18:45:15;;;;;;;12.07;5.10;;;;;;;;;;4964820;28;20452;-71
2023/11/11 18:47:41;;;;;;;11.73;4.67;;;;;;;;;;4969386;28;20503;-70
2023/11/11 18:50:07;;;;;;;10.63;4.40;;;;;;;;;;4970677;28;20424;-70
2023/11/11 18:52:35;;;;;;;11.80;5.10;;;;;;;;;;4970880;28;20440;-70
2023/11/11 18:55:01;;;;;;;25.23;6.63;;;;;;;;;;4975106;28;20434;-70
2023/11/11 18:57:27;;;;;;;10.30;4.47;;;;;;;;;;4974531;28;20514;-71
2023/11/11 18:59:53;;;;;;;13.70;5.33;;;;;;;;;;4974654;28;20418;-70
2023/11/11 19:02:19;;;;;;;12.10;5.07;;;;;;;;;;4969738;28;20481;-71
2023/11/11 19:04:47;;;;;;;12.20;4.80;;;;;;;;;;4966927;28;20907;-71
2023/11/11 19:07:13;;;;;;;12.27;4.80;;;;;;;;;;4974242;28;20415;-71
2023/11/11 19:09:39;;;;;;;12.80;5.37;;;;;;;;;;4966514;28;20446;-71
2023/11/11 19:12:06;;;;;;;8.13;5.17;;;;;;;;;;4966942;28;20454;-70
2023/11/11 19:14:32;;;;;;;11.13;5.30;;;;;;;;;;4973519;28;20430;-70
2023/11/11 19:16:58;;;;;;;9.20;5.20;;;;;;;;;;4970626;28;20954;-70
2023/11/11 19:19:24;;;;;;;9.60;4.53;;;;;;;;;;4973619;28;20421;-70
2023/11/11 19:21:50;;;;;;;7.10;4.40;;;;;;;;;;4970687;28;20450;-70
2023/11/11 19:24:16;;;;;;;7.90;4.73;;;;;;;;;;4973424;28;20420;-70
2023/11/11 19:26:42;;;;;;;9.17;4.23;;;;;;;;;;4972757;28;20546;-70
2023/11/11 19:29:08;;;;;;;10.27;4.60;;;;;;;;;;4973823;28;20475;-69
2023/11/11 19:31:34;;;;;;;10.57;4.00;;;;;;;;;;4970423;28;20561;-70
2023/11/11 19:34:01;;;;;;;8.83;4.43;;;;;;;;;;4979428;28;20501;-70
2023/11/11 19:36:27;;;;;;;10.87;4.47;;;;;;;;;;4958203;28;20936;-70
2023/11/11 19:38:53;;;;;;;14.00;5.00;;;;;;;;;;4954337;28;20421;-71
2023/11/11 19:41:20;;;;;;;10.83;4.80;;;;;;;;;;4954195;28;20464;-71
2023/11/11 19:43:48;;;;;;;10.80;4.67;;;;;;;;;;4964923;28;20463;-71
2023/11/11 19:46:14;;;;;;;13.23;4.70;;;;;;;;;;4973157;28;20422;-71
2023/11/11 19:48:42;;;;;;;7.80;4.40;;;;;;;;;;4973662;28;20412;-71
2023/11/11 19:51:08;;;;;;;5.40;3.83;;;;;;;;;;4973184;28;20441;-71
2023/11/11 19:53:34;;;;;;;13.60;5.63;;;;;;;;;;4964183;28;21149;-71
2023/11/11 19:56:00;;;;;;;7.23;4.60;;;;;;;;;;4967827;28;20452;-71
2023/11/11 19:58:27;;;;;;;6.87;4.63;;;;;;;;;;4966748;28;21124;-71
2023/11/11 20:00:53;;;;;;;8.80;4.83;;;;;;;;;;4972528;28;20443;-70
2023/11/11 20:03:19;;;;;;;10.00;4.30;;;;;;;;;;4969682;28;21001;-71
2023/11/11 20:05:46;;;;;;;11.83;4.43;;;;;;;;;;4969492;28;20426;-70
2023/11/11 20:08:12;;;;;;;7.87;4.40;;;;;;;;;;4964137;28;20412;-70
2023/11/11 20:10:38;;;;;;;10.70;4.77;;;;;;;;;;4967903;28;20881;-70
2023/11/11 20:13:03;;;;;;;14.80;5.07;;;;;;;;;;4969572;28;20431;-71
2023/11/11 20:15:29;;;;;;;8.13;4.43;;;;;;;;;;4971755;28;20429;-71
2023/11/11 20:17:55;;;;;;;8.53;4.63;;;;;;;;;;4974300;28;20432;-71
2023/11/11 20:20:21;;;;;;;10.57;5.10;;;;;;;;;;4977657;28;20423;-71
2023/11/11 20:22:47;;;;;;;15.80;6.90;;;;;;;;;;4969801;28;20499;-71
2023/11/11 20:25:13;;;;;;;13.27;6.27;;;;;;;;;;4973205;28;20934;-70
2023/11/11 20:27:39;;;;;;;15.07;6.60;;;;;;;;;;4972968;28;20442;-71
2023/11/11 20:30:10;;;;;;;14.57;5.10;;;;;;;;;;4972546;28;20448;-70
2023/11/11 20:32:36;;;;;;;10.83;5.20;;;;;;;;;;4967050;28;20419;-70
2023/11/11 20:35:03;;;;;;;6.37;3.73;;;;;;;;;;4967375;28;20423;-71
2023/11/11 20:37:29;;;;;;;8.53;3.47;;;;;;;;;;4972064;28;20443;-70
2023/11/11 20:39:55;;;;;;;6.70;3.40;;;;;;;;;;4972257;28;20482;-70